Etna, WY (83118)

10:10 AM MDT on July 23, 2014 (GMT -0600)
One Mile South of (KWYALPIN2) Elev 5650 ft | 43.16 °N, 111.03 °W | Change Station

Current weather conditions updated 1 second ago

Clear
Clear
70.2 °F
Feels Like 77 °F
N
0.0
Wind Variable Wind from SSE
Gusts 6.0 mph

Today is forecast to be nearly the same temperature as yesterday.

Today
High -- | Low -- °F
--% Chance of Precip.
Yesterday
High -- | Low -- °F
Precip. -- in
6:05 AM 8:54 PM
Waning Crescent, 10% visible
Pressure 30.31 in
Visibility 10.0 miles
Clouds Clear
Heat Index 77 °F
Dew Point 48 °F
Humidity 46%
Rainfall 0.00 in
Snow Depth 1 in
UV 5.5 out of 12
Pollen 5.90 out of 12
Air Quality Not available.
Flu Activity Not available.
METAR KAFO 231555Z AUTO 00000KT 10SM CLR 17/06 A3031 RMK AO2

More Conditions Fewer Conditions

Pressure 30.31 in
Visibility 10.0 miles
Clouds Clear
Heat Index 77 °F
Dew Point 48 °F
Humidity 46%
Rainfall 0.00 in
Snow Depth 1 in
UV 5.5 out of 12
Pollen 5.90 out of 12
Air Quality Not available.
Flu Activity Not available.
METAR KAFO 231555Z AUTO 00000KT 10SM CLR 17/06 A3031 RMK AO2

More Conditions Fewer Conditions

10-Day Weather Forecast

Almanac

Astronomy

Jul. 23, 2014 Rise Set
Actual Time 6:05 AM MDT 8:54 PM MDT
Civil Twilight 5:32 AM MDT 9:27 PM MDT
Nautical Twilight 4:50 AM MDT 10:09 PM MDT
Astronomical Twilight 4:01 AM MDT 10:58 PM MDT
Moon 3:28 AM MDT 6:25 PM MDT
Length of Visible Light 15h 55m
Length of Day
14h 49m
Tomorrow will be 1m 56s shorter.
Waning Crescent, 10% of the Moon is Illuminated
Today
Waning Crescent
Jul 26
New
Aug 3
First Quarter
Aug 10
Full
Aug 17
Last Quarter

Today's Extremes

State Highs State Lows

Community

WunderPhotos

Upload Photos

1,736,660 photos uploaded!

Nearby

Snow Depth

Station Depth Elevation
Willow Creek 1 in 8450 ft
Blind Bull Summit 2 in 8900 ft
Triple Peak 0 in 8500 ft
Granite Creek 0 in 6770 ft
Salt River Summit 0 in 7600 ft

Earthquake Activity

City Distance Mag. Time & Date
Driggs, Idaho 51 miles 3.1 5:31 PM MDT
2014-07-17
Minimum magnitude displayed is 2.5.

Coastal Water Temperatures

Place Temperature
No Stations Reporting

Nearby Weather Stations

Station Location Temp. Heat Index Dew Point Humidity Wind Precip. Elev Updated Type
One Mile South of, Alpine, WY 70.2 °F 77 °F 48 °F 46% SSE  at  0.0 mph 0.00 in / hr 5650 ft 10:10 AM MDT Rapid Fire
RAWS DALE BITNER ID, Wayan, ID 71 °F 77 °F 47 °F 43% ESE  at  7 mph 0.00 in / hr 6391 ft 8:45 AM MDT MADIS
LCWY Branch Office, Afton, WY 74.0 °F 77 °F 46 °F 37% NNW  at  0.0 mph 0.00 in / hr 6270 ft 10:01 AM MDT Normal
HADS SNAKE RIVER NEAR IRWIN 5SE ID, Irwin, ID 68 °F - - - North  at  - 0.00 in / hr 5353 ft 9:30 AM MDT MADIS
Hoback Nation, Jackson, WY 68.0 °F - 48 °F 48% ENE  at  0.0 mph 0.00 in / hr 5930 ft 10:08 AM MDT Normal

Show More Stations Show Fewer Stations